sensor_id;sensor_type;location;lat;lon;timestamp;pressure;altitude;pressure_sealevel;temperature;humidity
46366;BME280;72328;49.570;8.722;2024-03-23T00:56:09;98843.28;;;13.51;46.88
46366;BME280;72328;49.570;8.722;2024-03-23T01:00:10;98823.16;;;13.45;46.95
46366;BME280;72328;49.570;8.722;2024-03-23T01:04:11;98825.09;;;13.43;47.06
46366;BME280;72328;49.570;8.722;2024-03-23T01:08:12;98807.72;;;13.36;46.60
46366;BME280;72328;49.570;8.722;2024-03-23T01:12:12;98804.88;;;13.29;47.08
46366;BME280;72328;49.570;8.722;2024-03-23T01:16:14;98796.06;;;13.22;47.26
46366;BME280;72328;49.570;8.722;2024-03-23T01:20:14;98793.88;;;13.18;47.42
46366;BME280;72328;49.570;8.722;2024-03-23T01:24:15;98778.59;;;13.34;48.32
46366;BME280;72328;49.570;8.722;2024-03-23T01:28:16;98774.94;;;13.54;48.23
46366;BME280;72328;49.570;8.722;2024-03-23T01:32:16;98766.91;;;13.74;48.59
46366;BME280;72328;49.570;8.722;2024-03-23T01:36:17;98768.00;;;13.99;49.07
46366;BME280;72328;49.570;8.722;2024-03-23T01:40:18;98764.06;;;14.30;49.18
46366;BME280;72328;49.570;8.722;2024-03-23T01:44:19;98756.69;;;14.60;49.27
46366;BME280;72328;49.570;8.722;2024-03-23T01:48:20;98748.63;;;14.89;49.42
46366;BME280;72328;49.570;8.722;2024-03-23T01:52:21;98756.00;;;15.17;49.34
46366;BME280;72328;49.570;8.722;2024-03-23T01:56:22;98750.47;;;15.46;49.53
46366;BME280;72328;49.570;8.722;2024-03-23T02:00:22;98732.41;;;15.70;49.17
46366;BME280;72328;49.570;8.722;2024-03-23T02:04:24;98737.59;;;15.94;49.49
46366;BME280;72328;49.570;8.722;2024-03-23T02:08:24;98724.66;;;16.18;49.25
46366;BME280;72328;49.570;8.722;2024-03-23T02:12:25;98726.94;;;16.37;49.36
46366;BME280;72328;49.570;8.722;2024-03-23T02:16:26;98719.28;;;16.51;49.50
46366;BME280;72328;49.570;8.722;2024-03-23T02:20:26;98718.44;;;16.67;49.35
46366;BME280;72328;49.570;8.722;2024-03-23T02:24:29;98705.59;;;16.73;49.41
46366;BME280;72328;49.570;8.722;2024-03-23T02:28:30;98710.13;;;16.87;49.24
46366;BME280;72328;49.570;8.722;2024-03-23T02:32:30;98719.50;;;16.96;49.07
46366;BME280;72328;49.570;8.722;2024-03-23T02:36:31;98716.25;;;17.02;49.04
46366;BME280;72328;49.570;8.722;2024-03-23T02:40:31;98723.38;;;17.08;49.04
46366;BME280;72328;49.570;8.722;2024-03-23T02:44:32;98719.44;;;17.12;49.09
46366;BME280;72328;49.570;8.722;2024-03-23T02:48:33;98715.69;;;17.15;49.02
46366;BME280;72328;49.570;8.722;2024-03-23T02:52:34;98711.16;;;17.17;48.91
46366;BME280;72328;49.570;8.722;2024-03-23T02:56:34;98720.72;;;17.16;48.80
46366;BME280;72328;49.570;8.722;2024-03-23T03:00:35;98716.50;;;17.15;48.81
46366;BME280;72328;49.570;8.722;2024-03-23T03:04:36;98711.31;;;17.15;48.56
46366;BME280;72328;49.570;8.722;2024-03-23T03:08:37;98722.69;;;17.14;48.71
46366;BME280;72328;49.570;8.722;2024-03-23T03:12:37;98716.22;;;17.10;48.75
46366;BME280;72328;49.570;8.722;2024-03-23T03:16:38;98722.56;;;17.08;48.73
46366;BME280;72328;49.570;8.722;2024-03-23T03:20:39;98719.31;;;17.06;48.79
46366;BME280;72328;49.570;8.722;2024-03-23T03:24:40;98720.31;;;17.05;48.73
46366;BME280;72328;49.570;8.722;2024-03-23T03:28:41;98722.91;;;17.05;48.76
46366;BME280;72328;49.570;8.722;2024-03-23T03:32:41;98705.84;;;17.02;48.63
46366;BME280;72328;49.570;8.722;2024-03-23T03:36:42;98680.50;;;16.96;48.78
46366;BME280;72328;49.570;8.722;2024-03-23T03:40:43;98695.47;;;16.94;48.59
46366;BME280;72328;49.570;8.722;2024-03-23T03:44:44;98688.97;;;16.90;48.63
46366;BME280;72328;49.570;8.722;2024-03-23T03:48:44;98687.19;;;16.83;48.42
46366;BME280;72328;49.570;8.722;2024-03-23T03:52:46;98696.50;;;16.77;48.61
46366;BME280;72328;49.570;8.722;2024-03-23T03:56:47;98699.94;;;16.70;48.58
46366;BME280;72328;49.570;8.722;2024-03-23T04:00:48;98685.78;;;16.64;48.64
46366;BME280;72328;49.570;8.722;2024-03-23T04:04:48;98675.75;;;16.61;48.43
46366;BME280;72328;49.570;8.722;2024-03-23T04:08:49;98679.81;;;16.56;48.61
46366;BME280;72328;49.570;8.722;2024-03-23T04:12:50;98689.88;;;16.59;48.56
46366;BME280;72328;49.570;8.722;2024-03-23T04:16:51;98686.47;;;16.58;48.68
46366;BME280;72328;49.570;8.722;2024-03-23T04:20:51;98671.38;;;16.54;48.48
46366;BME280;72328;49.570;8.722;2024-03-23T04:25:01;98652.53;;;16.52;48.48
46366;BME280;72328;49.570;8.722;2024-03-23T04:29:07;98657.72;;;16.52;48.47
46366;BME280;72328;49.570;8.722;2024-03-23T04:33:07;98664.56;;;16.53;48.27
46366;BME280;72328;49.570;8.722;2024-03-23T04:37:08;98661.31;;;16.51;48.41
46366;BME280;72328;49.570;8.722;2024-03-23T04:41:09;98663.28;;;16.49;48.54
46366;BME280;72328;49.570;8.722;2024-03-23T04:45:09;98662.28;;;16.50;48.49
46366;BME280;72328;49.570;8.722;2024-03-23T04:49:11;98666.03;;;16.47;48.32
46366;BME280;72328;49.570;8.722;2024-03-23T04:53:11;98677.38;;;16.38;48.63
46366;BME280;72328;49.570;8.722;2024-03-23T04:57:12;98675.78;;;16.21;48.76
46366;BME280;72328;49.570;8.722;2024-03-23T05:01:13;98706.81;;;16.07;48.98
46366;BME280;72328;49.570;8.722;2024-03-23T05:05:17;98683.44;;;15.91;49.37
46366;BME280;72328;49.570;8.722;2024-03-23T05:09:18;98681.78;;;15.82;49.38
46366;BME280;72328;49.570;8.722;2024-03-23T05:13:20;98685.53;;;15.79;49.25
46366;BME280;72328;49.570;8.722;2024-03-23T05:17:21;98698.16;;;15.74;49.31
46366;BME280;72328;49.570;8.722;2024-03-23T05:21:21;98696.06;;;15.70;49.37
46366;BME280;72328;49.570;8.722;2024-03-23T05:25:22;98747.44;;;15.58;49.38
46366;BME280;72328;49.570;8.722;2024-03-23T05:29:26;98792.81;;;15.46;49.23
46366;BME280;72328;49.570;8.722;2024-03-23T05:33:26;98810.03;;;15.30;49.18
46366;BME280;72328;49.570;8.722;2024-03-23T05:37:27;98806.59;;;15.13;48.83
46366;BME280;72328;49.570;8.722;2024-03-23T05:41:28;98805.50;;;14.98;48.71
46366;BME280;72328;49.570;8.722;2024-03-23T05:45:29;98817.88;;;14.79;48.58
46366;BME280;72328;49.570;8.722;2024-03-23T05:49:29;98816.28;;;14.60;48.60
46366;BME280;72328;49.570;8.722;2024-03-23T05:53:30;98830.88;;;14.44;48.59
46366;BME280;72328;49.570;8.722;2024-03-23T05:57:31;98837.75;;;14.35;48.77
46366;BME280;72328;49.570;8.722;2024-03-23T06:01:32;98865.13;;;14.20;48.62
46366;BME280;72328;49.570;8.722;2024-03-23T06:05:36;98885.47;;;14.06;48.56
46366;BME280;72328;49.570;8.722;2024-03-23T06:09:37;98903.81;;;13.95;48.40
46366;BME280;72328;49.570;8.722;2024-03-23T06:13:37;98923.06;;;13.83;48.77
46366;BME280;72328;49.570;8.722;2024-03-23T06:17:38;98930.84;;;13.73;48.80
46366;BME280;72328;49.570;8.722;2024-03-23T06:21:43;98930.59;;;13.67;48.69
46366;BME280;72328;49.570;8.722;2024-03-23T06:25:44;98938.53;;;13.65;48.35
46366;BME280;72328;49.570;8.722;2024-03-23T06:29:47;98958.81;;;13.60;48.44
46366;BME280;72328;49.570;8.722;2024-03-23T06:33:47;98969.16;;;13.51;48.48
46366;BME280;72328;49.570;8.722;2024-03-23T06:37:48;98970.25;;;13.48;48.89
46366;BME280;72328;49.570;8.722;2024-03-23T06:41:53;98963.06;;;13.42;48.65
46366;BME280;72328;49.570;8.722;2024-03-23T06:45:54;98974.94;;;13.35;48.74
46366;BME280;72328;49.570;8.722;2024-03-23T06:49:55;98981.31;;;13.31;48.78
46366;BME280;72328;49.570;8.722;2024-03-23T06:53:55;98982.94;;;13.32;48.90
46366;BME280;72328;49.570;8.722;2024-03-23T06:57:56;99005.00;;;13.36;48.99
46366;BME280;72328;49.570;8.722;2024-03-23T07:01:57;99017.78;;;13.38;48.91
46366;BME280;72328;49.570;8.722;2024-03-23T07:05:58;99013.84;;;13.43;48.95
46366;BME280;72328;49.570;8.722;2024-03-23T07:09:59;99024.31;;;13.42;48.62
46366;BME280;72328;49.570;8.722;2024-03-23T07:14:00;99036.72;;;13.38;48.67
46366;BME280;72328;49.570;8.722;2024-03-23T07:18:01;99034.13;;;13.29;48.98
46366;BME280;72328;49.570;8.722;2024-03-23T07:22:01;99061.75;;;13.28;48.70
46366;BME280;72328;49.570;8.722;2024-03-23T07:26:03;99057.38;;;13.19;48.81
46366;BME280;72328;49.570;8.722;2024-03-23T07:30:06;99075.91;;;13.15;48.81
46366;BME280;72328;49.570;8.722;2024-03-23T07:34:06;99078.19;;;13.18;49.25
46366;BME280;72328;49.570;8.722;2024-03-23T07:38:07;99098.34;;;13.14;49.05
46366;BME280;72328;49.570;8.722;2024-03-23T07:42:08;99095.06;;;13.12;49.50
46366;BME280;72328;49.570;8.722;2024-03-23T07:46:08;99122.00;;;13.10;49.08
46366;BME280;72328;49.570;8.722;2024-03-23T07:50:09;99145.41;;;13.08;49.04
46366;BME280;72328;49.570;8.722;2024-03-23T07:54:10;99161.84;;;13.07;49.09
46366;BME280;72328;49.570;8.722;2024-03-23T07:58:11;99173.81;;;13.08;48.88
46366;BME280;72328;49.570;8.722;2024-03-23T08:02:12;99169.06;;;13.04;49.24
46366;BME280;72328;49.570;8.722;2024-03-23T08:06:17;99180.72;;;12.98;49.12
46366;BME280;72328;49.570;8.722;2024-03-23T08:10:18;99199.78;;;12.97;48.80
46366;BME280;72328;49.570;8.722;2024-03-23T08:14:18;99198.81;;;12.98;49.27
46366;BME280;72328;49.570;8.722;2024-03-23T08:18:20;99206.88;;;13.05;49.38
46366;BME280;72328;49.570;8.722;2024-03-23T08:22:21;99211.38;;;13.12;49.93
46366;BME280;72328;49.570;8.722;2024-03-23T08:26:22;99220.91;;;13.21;49.93
46366;BME280;72328;49.570;8.722;2024-03-23T08:30:23;99230.72;;;13.27;50.07
46366;BME280;72328;49.570;8.722;2024-03-23T08:34:23;99226.56;;;13.36;50.08
46366;BME280;72328;49.570;8.722;2024-03-23T08:38:25;99237.78;;;14.12;50.82
46366;BME280;72328;49.570;8.722;2024-03-23T08:42:26;99238.91;;;15.83;59.46
46366;BME280;72328;49.570;8.722;2024-03-23T08:46:26;99229.22;;;18.11;61.58
46366;BME280;72328;49.570;8.722;2024-03-23T08:50:28;99235.50;;;20.41;61.57
46366;BME280;72328;49.570;8.722;2024-03-23T08:54:28;99235.72;;;22.40;60.85
46366;BME280;72328;49.570;8.722;2024-03-23T08:58:32;99226.97;;;23.75;60.11
46366;BME280;72328;49.570;8.722;2024-03-23T09:02:33;99231.13;;;24.49;58.56
46366;BME280;72328;49.570;8.722;2024-03-23T09:06:34;99236.88;;;23.80;57.09
46366;BME280;72328;49.570;8.722;2024-03-23T09:10:38;99253.06;;;23.23;56.42
46366;BME280;72328;49.570;8.722;2024-03-23T09:14:39;99244.13;;;22.84;55.61
46366;BME280;72328;49.570;8.722;2024-03-23T09:18:40;99255.22;;;22.52;54.74
46366;BME280;72328;49.570;8.722;2024-03-23T09:22:40;99258.34;;;22.20;53.43
46366;BME280;72328;49.570;8.722;2024-03-23T09:26:41;99268.63;;;21.79;51.93
46366;BME280;72328;49.570;8.722;2024-03-23T09:30:42;99262.19;;;21.32;51.07
46366;BME280;72328;49.570;8.722;2024-03-23T09:34:43;99256.94;;;20.88;50.17
46366;BME280;72328;49.570;8.722;2024-03-23T09:38:43;99250.47;;;20.47;49.48
46366;BME280;72328;49.570;8.722;2024-03-23T09:42:49;99256.66;;;20.09;49.49
46366;BME280;72328;49.570;8.722;2024-03-23T09:46:50;99251.06;;;19.90;49.38
46366;BME280;72328;49.570;8.722;2024-03-23T09:50:51;99242.75;;;19.64;49.62
46366;BME280;72328;49.570;8.722;2024-03-23T09:54:51;99241.06;;;19.40;49.31
46366;BME280;72328;49.570;8.722;2024-03-23T09:58:59;99253.53;;;19.22;49.03
46366;BME280;72328;49.570;8.722;2024-03-23T10:03:00;99249.22;;;18.91;48.45
46366;BME280;72328;49.570;8.722;2024-03-23T10:07:12;99249.28;;;18.59;48.15
46366;BME280;72328;49.570;8.722;2024-03-23T10:11:14;99238.34;;;18.31;48.16
46366;BME280;72328;49.570;8.722;2024-03-23T10:15:22;99232.81;;;18.10;47.82
46366;BME280;72328;49.570;8.722;2024-03-23T10:19:32;99227.25;;;17.89;47.49
46366;BME280;72328;49.570;8.722;2024-03-23T10:23:34;99229.84;;;17.73;47.40
46366;BME280;72328;49.570;8.722;2024-03-23T10:27:35;99237.56;;;17.49;47.19
46366;BME280;72328;49.570;8.722;2024-03-23T10:31:35;99239.09;;;17.26;47.13
46366;BME280;72328;49.570;8.722;2024-03-23T10:35:37;99232.59;;;16.89;47.00
46366;BME280;72328;49.570;8.722;2024-03-23T10:39:39;99228.41;;;16.70;47.11
46366;BME280;72328;49.570;8.722;2024-03-23T10:43:40;99225.16;;;16.68;47.35
46366;BME280;72328;49.570;8.722;2024-03-23T10:47:43;99233.28;;;16.65;47.65
46366;BME280;72328;49.570;8.722;2024-03-23T10:51:44;99222.53;;;16.60;47.17
46366;BME280;72328;49.570;8.722;2024-03-23T10:55:44;99224.16;;;16.61;46.97
46366;BME280;72328;49.570;8.722;2024-03-23T10:59:45;99216.63;;;16.50;46.83
46366;BME280;72328;49.570;8.722;2024-03-23T11:03:46;99206.09;;;16.34;46.75
46366;BME280;72328;49.570;8.722;2024-03-23T11:07:51;99216.41;;;16.26;46.20
46366;BME280;72328;49.570;8.722;2024-03-23T11:11:51;99227.88;;;16.16;46.32
46366;BME280;72328;49.570;8.722;2024-03-23T11:15:52;99214.72;;;16.17;46.13
46366;BME280;72328;49.570;8.722;2024-03-23T11:19:57;99218.72;;;16.80;46.55
46366;BME280;72328;49.570;8.722;2024-03-23T11:24:14;99209.59;;;17.02;46.62
46366;BME280;72328;49.570;8.722;2024-03-23T11:28:15;99208.31;;;17.14;47.34
46366;BME280;72328;49.570;8.722;2024-03-23T11:32:17;99259.56;;;17.13;46.94
46366;BME280;72328;49.570;8.722;2024-03-23T11:36:20;99274.91;;;16.99;46.74
46366;BME280;72328;49.570;8.722;2024-03-23T11:40:21;99267.47;;;16.78;46.22
46366;BME280;72328;49.570;8.722;2024-03-23T11:44:23;99249.94;;;16.55;46.27
46366;BME280;72328;49.570;8.722;2024-03-23T11:48:25;99237.34;;;16.42;46.21
46366;BME280;72328;49.570;8.722;2024-03-23T11:52:27;99256.72;;;16.30;46.23
46366;BME280;72328;49.570;8.722;2024-03-23T11:56:28;99259.66;;;16.10;45.92
46366;BME280;72328;49.570;8.722;2024-03-23T12:00:29;99266.09;;;15.88;45.64
46366;BME280;72328;49.570;8.722;2024-03-23T12:04:30;99280.44;;;15.65;45.51
46366;BME280;72328;49.570;8.722;2024-03-23T12:08:35;99295.06;;;15.39;45.42
46366;BME280;72328;49.570;8.722;2024-03-23T12:12:35;99308.50;;;15.16;45.20
46366;BME280;72328;49.570;8.722;2024-03-23T12:16:36;99299.16;;;14.96;45.38
46366;BME280;72328;49.570;8.722;2024-03-23T12:20:37;99274.19;;;14.85;45.43
46366;BME280;72328;49.570;8.722;2024-03-23T12:24:38;99261.97;;;14.78;45.96
46366;BME280;72328;49.570;8.722;2024-03-23T12:28:45;99250.94;;;14.66;46.20
46366;BME280;72328;49.570;8.722;2024-03-23T12:32:46;99252.34;;;14.51;46.33
46366;BME280;72328;49.570;8.722;2024-03-23T12:36:46;99250.56;;;14.42;46.58
46366;BME280;72328;49.570;8.722;2024-03-23T12:40:47;99233.31;;;14.33;46.30
46366;BME280;72328;49.570;8.722;2024-03-23T12:44:48;99252.13;;;14.26;46.29
46366;BME280;72328;49.570;8.722;2024-03-23T12:48:50;99255.75;;;14.14;46.48
46366;BME280;72328;49.570;8.722;2024-03-23T12:52:50;99276.47;;;14.04;45.92
46366;BME280;72328;49.570;8.722;2024-03-23T12:56:51;99250.69;;;13.65;46.23
46366;BME280;72328;49.570;8.722;2024-03-23T13:00:52;99237.56;;;13.28;47.27
46366;BME280;72328;49.570;8.722;2024-03-23T13:04:53;99224.88;;;13.35;47.70
46366;BME280;72328;49.570;8.722;2024-03-23T13:08:54;99232.16;;;13.50;47.98
46366;BME280;72328;49.570;8.722;2024-03-23T13:12:55;99218.97;;;13.63;47.97
46366;BME280;72328;49.570;8.722;2024-03-23T13:16:55;99230.53;;;13.68;47.39
46366;BME280;72328;49.570;8.722;2024-03-23T13:20:56;99252.31;;;13.66;47.12
46366;BME280;72328;49.570;8.722;2024-03-23T13:24:57;99240.47;;;13.54;47.06
46366;BME280;72328;49.570;8.722;2024-03-23T13:28:57;99244.91;;;13.42;46.80
46366;BME280;72328;49.570;8.722;2024-03-23T13:32:58;99255.78;;;13.36;46.98
46366;BME280;72328;49.570;8.722;2024-03-23T13:36:59;99246.94;;;13.29;46.98
46366;BME280;72328;49.570;8.722;2024-03-23T13:41:00;99240.38;;;13.25;46.66
46366;BME280;72328;49.570;8.722;2024-03-23T13:45:01;99240.25;;;13.27;47.08
46366;BME280;72328;49.570;8.722;2024-03-23T13:49:01;99251.22;;;13.10;46.84
46366;BME280;72328;49.570;8.722;2024-03-23T13:53:02;99248.75;;;12.99;47.22
46366;BME280;72328;49.570;8.722;2024-03-23T13:57:03;99257.09;;;12.91;47.50
46366;BME280;72328;49.570;8.722;2024-03-23T14:01:03;99257.09;;;12.91;47.30
46366;BME280;72328;49.570;8.722;2024-03-23T14:05:04;99254.88;;;12.87;47.67
46366;BME280;72328;49.570;8.722;2024-03-23T14:09:05;99249.19;;;12.93;47.62
46366;BME280;72328;49.570;8.722;2024-03-23T14:13:09;99231.38;;;12.90;47.24
46366;BME280;72328;49.570;8.722;2024-03-23T14:17:10;99219.56;;;12.87;47.67
46366;BME280;72328;49.570;8.722;2024-03-23T14:21:12;99218.03;;;12.85;47.47
46366;BME280;72328;49.570;8.722;2024-03-23T14:25:13;99202.00;;;12.81;47.19
46366;BME280;72328;49.570;8.722;2024-03-23T14:29:13;99205.78;;;12.77;47.56
46366;BME280;72328;49.570;8.722;2024-03-23T14:33:14;99191.91;;;12.78;47.62
46366;BME280;72328;49.570;8.722;2024-03-23T14:37:15;99186.09;;;12.86;47.84
46366;BME280;72328;49.570;8.722;2024-03-23T14:41:16;99183.25;;;12.89;47.07
46366;BME280;72328;49.570;8.722;2024-03-23T14:45:16;99168.13;;;12.84;47.43
46366;BME280;72328;49.570;8.722;2024-03-23T14:49:17;99179.41;;;12.83;46.80
46366;BME280;72328;49.570;8.722;2024-03-23T14:53:18;99180.88;;;12.76;47.39
46366;BME280;72328;49.570;8.722;2024-03-23T14:57:18;99178.78;;;12.61;47.88
46366;BME280;72328;49.570;8.722;2024-03-23T15:01:20;99173.88;;;12.58;48.23
46366;BME280;72328;49.570;8.722;2024-03-23T15:05:21;99166.28;;;12.66;48.02
46366;BME280;72328;49.570;8.722;2024-03-23T15:09:22;99175.84;;;12.75;47.88
46366;BME280;72328;49.570;8.722;2024-03-23T15:13:22;99163.75;;;12.75;47.58
46366;BME280;72328;49.570;8.722;2024-03-23T15:17:23;99170.81;;;12.73;47.91
46366;BME280;72328;49.570;8.722;2024-03-23T15:21:24;99173.38;;;12.73;47.63
46366;BME280;72328;49.570;8.722;2024-03-23T15:25:25;99156.44;;;12.80;47.84
46366;BME280;72328;49.570;8.722;2024-03-23T15:29:25;99171.13;;;12.89;47.39
46366;BME280;72328;49.570;8.722;2024-03-23T15:33:26;99173.94;;;12.97;46.87
46366;BME280;72328;49.570;8.722;2024-03-23T15:37:27;99183.31;;;12.98;47.12
46366;BME280;72328;49.570;8.722;2024-03-23T15:41:27;99182.72;;;12.95;47.28
46366;BME280;72328;49.570;8.722;2024-03-23T15:45:28;99177.47;;;12.96;47.05
46366;BME280;72328;49.570;8.722;2024-03-23T15:49:29;99164.53;;;12.96;46.65
46366;BME280;72328;49.570;8.722;2024-03-23T15:53:30;99154.56;;;12.92;46.98
46366;BME280;72328;49.570;8.722;2024-03-23T15:57:34;99151.16;;;12.91;46.83
46366;BME280;72328;49.570;8.722;2024-03-23T16:01:35;99150.91;;;12.94;46.58
46366;BME280;72328;49.570;8.722;2024-03-23T16:05:35;99157.47;;;12.98;46.07
46366;BME280;72328;49.570;8.722;2024-03-23T16:09:36;99158.63;;;12.94;46.20
46366;BME280;72328;49.570;8.722;2024-03-23T16:13:38;99169.50;;;12.88;46.18
46366;BME280;72328;49.570;8.722;2024-03-23T16:17:40;99167.31;;;12.84;46.66
46366;BME280;72328;49.570;8.722;2024-03-23T16:21:40;99163.78;;;12.85;46.94
46366;BME280;72328;49.570;8.722;2024-03-23T16:25:49;99164.75;;;12.84;46.61
46366;BME280;72328;49.570;8.722;2024-03-23T16:29:56;99148.28;;;12.75;46.68
46366;BME280;72328;49.570;8.722;2024-03-23T16:33:56;99164.97;;;12.71;46.76
46366;BME280;72328;49.570;8.722;2024-03-23T16:37:57;99154.44;;;12.63;47.00
46366;BME280;72328;49.570;8.722;2024-03-23T16:41:57;99149.69;;;12.59;46.60
46366;BME280;72328;49.570;8.722;2024-03-23T16:45:59;99148.19;;;12.56;46.56
46366;BME280;72328;49.570;8.722;2024-03-23T16:50:00;99156.66;;;12.38;46.36
46366;BME280;72328;49.570;8.722;2024-03-23T16:54:01;99177.91;;;12.21;46.75
46366;BME280;72328;49.570;8.722;2024-03-23T16:58:01;99179.19;;;12.15;47.03
46366;BME280;72328;49.570;8.722;2024-03-23T17:02:02;99195.63;;;12.14;46.42
46366;BME280;72328;49.570;8.722;2024-03-23T17:06:06;99194.41;;;11.98;46.78
46366;BME280;72328;49.570;8.722;2024-03-23T17:10:07;99192.03;;;11.85;46.86
46366;BME280;72328;49.570;8.722;2024-03-23T17:14:08;99177.53;;;11.73;47.03
46366;BME280;72328;49.570;8.722;2024-03-23T17:18:08;99178.06;;;11.56;47.21
46366;BME280;72328;49.570;8.722;2024-03-23T17:22:09;99164.03;;;11.49;47.12
46366;BME280;72328;49.570;8.722;2024-03-23T17:26:10;99150.41;;;11.47;47.04
46366;BME280;72328;49.570;8.722;2024-03-23T17:30:12;99132.31;;;11.38;47.22
46366;BME280;72328;49.570;8.722;2024-03-23T17:34:16;99139.00;;;11.29;47.23
46366;BME280;72328;49.570;8.722;2024-03-23T17:38:16;99132.22;;;11.28;46.92
46366;BME280;72328;49.570;8.722;2024-03-23T17:42:17;99141.94;;;11.36;46.59
46366;BME280;72328;49.570;8.722;2024-03-23T17:46:17;99132.97;;;11.40;46.66
46366;BME280;72328;49.570;8.722;2024-03-23T17:50:18;99130.41;;;11.40;46.58
46366;BME280;72328;49.570;8.722;2024-03-23T17:54:19;99129.72;;;11.38;46.50
46366;BME280;72328;49.570;8.722;2024-03-23T17:58:20;99149.53;;;11.37;46.51
46366;BME280;72328;49.570;8.722;2024-03-23T18:02:20;99163.34;;;11.36;46.51
46366;BME280;72328;49.570;8.722;2024-03-23T18:06:21;99158.78;;;11.29;46.78
46366;BME280;72328;49.570;8.722;2024-03-23T18:10:22;99151.06;;;11.29;46.60
46366;BME280;72328;49.570;8.722;2024-03-23T18:14:23;99153.91;;;11.26;46.55
46366;BME280;72328;49.570;8.722;2024-03-23T18:18:24;99162.44;;;11.26;46.50
46366;BME280;72328;49.570;8.722;2024-03-23T18:22:26;99152.53;;;11.11;46.50
46366;BME280;72328;49.570;8.722;2024-03-23T18:26:27;99147.78;;;10.95;47.00
46366;BME280;72328;49.570;8.722;2024-03-23T18:30:28;99152.69;;;10.87;47.01
46366;BME280;72328;49.570;8.722;2024-03-23T18:34:28;99161.81;;;10.91;46.78
46366;BME280;72328;49.570;8.722;2024-03-23T18:38:29;99170.50;;;10.90;46.87
46366;BME280;72328;49.570;8.722;2024-03-23T18:42:32;99178.06;;;10.81;46.96
46366;BME280;72328;49.570;8.722;2024-03-23T18:46:32;99183.13;;;10.71;47.25
46366;BME280;72328;49.570;8.722;2024-03-23T18:50:34;99182.88;;;10.63;47.08
46366;BME280;72328;49.570;8.722;2024-03-23T18:54:35;99180.44;;;10.62;47.25
46366;BME280;72328;49.570;8.722;2024-03-23T18:58:35;99175.16;;;10.63;47.20
46366;BME280;72328;49.570;8.722;2024-03-23T19:02:37;99164.84;;;10.63;47.04
46366;BME280;72328;49.570;8.722;2024-03-23T19:06:38;99167.91;;;10.57;46.61
46366;BME280;72328;49.570;8.722;2024-03-23T19:10:38;99159.25;;;10.47;47.23
46366;BME280;72328;49.570;8.722;2024-03-23T19:14:39;99166.03;;;10.37;47.17
46366;BME280;72328;49.570;8.722;2024-03-23T19:18:41;99154.06;;;10.25;47.23
46366;BME280;72328;49.570;8.722;2024-03-23T19:22:42;99164.03;;;10.19;47.23
46366;BME280;72328;49.570;8.722;2024-03-23T19:26:44;99158.13;;;10.06;47.39
46366;BME280;72328;49.570;8.722;2024-03-23T19:30:45;99169.19;;;9.95;47.36
46366;BME280;72328;49.570;8.722;2024-03-23T19:34:46;99171.16;;;9.92;47.44
46366;BME280;72328;49.570;8.722;2024-03-23T19:38:46;99181.81;;;9.98;47.53
46366;BME280;72328;49.570;8.722;2024-03-23T19:42:47;99176.66;;;9.98;47.56
46366;BME280;72328;49.570;8.722;2024-03-23T19:46:48;99179.25;;;9.98;47.49
46366;BME280;72328;49.570;8.722;2024-03-23T19:50:58;99173.78;;;10.03;47.39
46366;BME280;72328;49.570;8.722;2024-03-23T19:54:59;99180.66;;;10.02;47.00
46366;BME280;72328;49.570;8.722;2024-03-23T19:58:59;99187.69;;;10.00;47.52
46366;BME280;72328;49.570;8.722;2024-03-23T20:03:00;99189.63;;;9.97;47.59
46366;BME280;72328;49.570;8.722;2024-03-23T20:07:06;99179.91;;;9.89;47.71
46366;BME280;72328;49.570;8.722;2024-03-23T20:11:07;99178.38;;;9.87;47.56
46366;BME280;72328;49.570;8.722;2024-03-23T20:15:07;99178.28;;;9.88;47.55
46366;BME280;72328;49.570;8.722;2024-03-23T20:19:08;99175.94;;;9.85;47.85
46366;BME280;72328;49.570;8.722;2024-03-23T20:23:10;99172.19;;;9.89;47.90
46366;BME280;72328;49.570;8.722;2024-03-23T20:27:10;99169.75;;;9.88;47.97
46366;BME280;72328;49.570;8.722;2024-03-23T20:31:11;99176.66;;;9.87;47.84
46366;BME280;72328;49.570;8.722;2024-03-23T20:35:12;99177.59;;;9.86;47.69
46366;BME280;72328;49.570;8.722;2024-03-23T20:39:13;99178.28;;;9.88;47.76
46366;BME280;72328;49.570;8.722;2024-03-23T20:43:13;99178.88;;;9.92;47.94
46366;BME280;72328;49.570;8.722;2024-03-23T20:47:14;99174.78;;;9.89;48.18
46366;BME280;72328;49.570;8.722;2024-03-23T20:51:18;99187.38;;;9.81;48.18
46366;BME280;72328;49.570;8.722;2024-03-23T20:55:18;99172.63;;;9.72;48.13
46366;BME280;72328;49.570;8.722;2024-03-23T20:59:19;99173.75;;;9.68;48.15
46366;BME280;72328;49.570;8.722;2024-03-23T21:03:20;99169.44;;;9.69;48.42
46366;BME280;72328;49.570;8.722;2024-03-23T21:07:20;99177.25;;;9.67;48.31
46366;BME280;72328;49.570;8.722;2024-03-23T21:11:21;99166.97;;;9.67;48.70
46366;BME280;72328;49.570;8.722;2024-03-23T21:15:22;99158.78;;;9.62;48.89
46366;BME280;72328;49.570;8.722;2024-03-23T21:19:22;99161.97;;;9.66;48.79
46366;BME280;72328;49.570;8.722;2024-03-23T21:23:24;99157.16;;;9.61;48.71
46366;BME280;72328;49.570;8.722;2024-03-23T21:27:25;99150.03;;;9.65;48.67
46366;BME280;72328;49.570;8.722;2024-03-23T21:31:26;99149.00;;;9.67;48.46
46366;BME280;72328;49.570;8.722;2024-03-23T21:35:26;99149.94;;;9.66;48.16
46366;BME280;72328;49.570;8.722;2024-03-23T21:39:27;99149.69;;;9.58;48.82
46366;BME280;72328;49.570;8.722;2024-03-23T21:43:28;99144.97;;;9.52;48.57
46366;BME280;72328;49.570;8.722;2024-03-23T21:47:30;99132.72;;;9.56;48.92
46366;BME280;72328;49.570;8.722;2024-03-23T21:51:31;99128.63;;;9.53;48.57
46366;BME280;72328;49.570;8.722;2024-03-23T21:55:32;99133.22;;;9.61;48.47
46366;BME280;72328;49.570;8.722;2024-03-23T21:59:33;99132.63;;;9.68;48.63
46366;BME280;72328;49.570;8.722;2024-03-23T22:03:34;99119.69;;;9.70;48.57
46366;BME280;72328;49.570;8.722;2024-03-23T22:07:35;99120.50;;;9.70;48.54
46366;BME280;72328;49.570;8.722;2024-03-23T22:11:36;99116.19;;;9.71;48.31
46366;BME280;72328;49.570;8.722;2024-03-23T22:15:38;99113.28;;;9.75;48.66